createdAt,value
2022-09-12T00:00:52.118Z,16.60
2022-09-12T00:03:18.857Z,16.60
2022-09-12T00:05:46.955Z,16.50
2022-09-12T00:08:14.506Z,16.50
2022-09-12T00:10:43.830Z,16.60
2022-09-12T00:13:11.701Z,16.50
2022-09-12T00:15:43.065Z,16.40
2022-09-12T00:18:12.635Z,16.50
2022-09-12T00:20:46.991Z,16.40
2022-09-12T00:23:14.347Z,16.40
2022-09-12T00:25:46.102Z,16.30
2022-09-12T00:28:14.625Z,16.30
2022-09-12T00:30:43.174Z,16.30
2022-09-12T00:33:11.098Z,16.20
2022-09-12T00:35:49.583Z,16.30
2022-09-12T00:38:17.323Z,16.20
2022-09-12T00:40:44.865Z,16.20
2022-09-12T00:43:39.329Z,16.20
2022-09-12T00:46:14.612Z,16.20
2022-09-12T00:48:49.858Z,16.10
2022-09-12T00:51:17.961Z,16.10
2022-09-12T00:53:46.398Z,16.10
2022-09-12T00:56:15.779Z,16.10
2022-09-12T00:58:54.245Z,16.10
2022-09-12T01:01:20.951Z,16.00
2022-09-12T01:03:47.836Z,16.00
2022-09-12T01:06:30.280Z,15.90
2022-09-12T01:08:59.162Z,15.90
2022-09-12T01:11:26.441Z,15.90
2022-09-12T01:13:54.501Z,15.90
2022-09-12T01:16:21.202Z,15.90
2022-09-12T01:19:06.157Z,15.80
2022-09-12T01:22:04.877Z,15.80
2022-09-12T01:24:46.909Z,15.80
2022-09-12T01:27:38.243Z,15.80
2022-09-12T01:30:07.479Z,15.80
2022-09-12T01:32:55.755Z,15.80
2022-09-12T01:35:26.330Z,15.80
2022-09-12T01:38:22.743Z,15.70
2022-09-12T01:40:58.046Z,15.70
2022-09-12T01:43:35.760Z,15.70
2022-09-12T01:46:22.552Z,15.70
2022-09-12T01:49:01.004Z,15.70
2022-09-12T01:51:53.496Z,15.70
2022-09-12T01:54:27.189Z,15.70
2022-09-12T01:57:00.429Z,15.60
2022-09-12T01:59:34.164Z,15.60
2022-09-12T02:02:05.085Z,15.60
2022-09-12T02:05:00.701Z,15.60
2022-09-12T02:07:47.984Z,15.60
2022-09-12T02:10:28.049Z,15.50
2022-09-12T02:13:07.892Z,15.50
2022-09-12T02:15:46.224Z,15.50
2022-09-12T02:18:15.922Z,15.50
2022-09-12T02:20:48.549Z,15.40
2022-09-12T02:23:29.193Z,15.40
2022-09-12T02:26:05.635Z,15.40
2022-09-12T02:28:35.995Z,15.40
2022-09-12T02:31:25.156Z,15.40
2022-09-12T02:34:16.042Z,15.40
2022-09-12T02:36:45.388Z,15.40
2022-09-12T02:39:12.289Z,15.40
2022-09-12T02:41:39.058Z,15.40
2022-09-12T02:44:06.236Z,15.40
2022-09-12T02:46:46.725Z,15.40
2022-09-12T02:49:13.838Z,15.40
2022-09-12T02:51:41.047Z,15.30
2022-09-12T02:54:09.202Z,15.30
2022-09-12T02:56:36.557Z,15.40
2022-09-12T02:59:07.550Z,15.30
2022-09-12T03:01:43.257Z,15.30
2022-09-12T03:04:34.771Z,15.30
2022-09-12T03:07:07.078Z,15.30
2022-09-12T03:09:45.745Z,15.30
2022-09-12T03:12:23.068Z,15.40
2022-09-12T03:15:10.790Z,15.40
2022-09-12T03:17:57.190Z,15.30
2022-09-12T03:20:49.418Z,15.30
2022-09-12T03:23:30.823Z,15.20
2022-09-12T03:26:10.820Z,15.20
2022-09-12T03:28:39.364Z,15.10
2022-09-12T03:31:14.828Z,15.10
2022-09-12T03:33:41.758Z,15.00
2022-09-12T03:36:18.577Z,15.00
2022-09-12T03:38:45.344Z,15.00
2022-09-12T03:41:12.113Z,15.00
2022-09-12T03:43:38.821Z,15.00
2022-09-12T03:46:05.643Z,14.90
2022-09-12T03:48:32.587Z,14.90
2022-09-12T03:51:04.589Z,14.90
2022-09-12T03:53:31.959Z,14.90
2022-09-12T03:55:59.575Z,14.90
2022-09-12T03:58:30.599Z,14.80
2022-09-12T04:00:58.033Z,14.80
2022-09-12T04:03:24.718Z,14.80
2022-09-12T04:05:51.354Z,14.80
2022-09-12T04:08:17.996Z,14.80
2022-09-12T04:10:44.630Z,14.80
2022-09-12T04:13:11.339Z,14.80
2022-09-12T04:15:37.963Z,14.80
2022-09-12T04:18:06.112Z,14.80
2022-09-12T04:20:32.919Z,14.80
2022-09-12T04:22:59.547Z,14.80
2022-09-12T04:25:28.193Z,14.90
2022-09-12T04:27:54.841Z,14.80
2022-09-12T04:30:21.546Z,14.80
2022-09-12T04:32:48.275Z,14.80
2022-09-12T04:35:15.014Z,14.80
2022-09-12T04:37:41.630Z,14.80
2022-09-12T04:40:08.856Z,14.80
2022-09-12T04:42:35.537Z,14.70
2022-09-12T04:45:02.138Z,14.70
2022-09-12T04:47:28.793Z,14.70
2022-09-12T04:49:55.433Z,14.70
2022-09-12T04:52:22.040Z,14.70
2022-09-12T04:54:48.744Z,14.60
2022-09-12T04:57:15.399Z,14.60
2022-09-12T04:59:42.165Z,14.60
2022-09-12T05:02:08.885Z,14.50
2022-09-12T05:04:36.066Z,14.50
2022-09-12T05:07:02.942Z,14.50
2022-09-12T05:09:29.601Z,14.50
2022-09-12T05:12:04.909Z,14.50
2022-09-12T05:14:33.069Z,14.50
2022-09-12T05:17:01.430Z,14.50
2022-09-12T05:19:30.226Z,14.50
2022-09-12T05:21:57.214Z,14.50
2022-09-12T05:24:24.702Z,14.50
2022-09-12T05:26:51.449Z,14.50
2022-09-12T05:29:18.266Z,14.60
2022-09-12T05:31:44.904Z,14.60
2022-09-12T05:34:12.600Z,14.70
2022-09-12T05:36:39.325Z,14.70
2022-09-12T05:39:06.071Z,14.80
2022-09-12T05:41:33.989Z,14.80
2022-09-12T05:44:04.036Z,14.90
2022-09-12T05:46:35.674Z,14.90
2022-09-12T05:49:08.831Z,15.00
2022-09-12T05:51:39.203Z,15.00
2022-09-12T05:54:08.614Z,15.10
2022-09-12T05:56:39.402Z,15.10
2022-09-12T05:59:16.654Z,15.20
2022-09-12T06:01:43.596Z,15.30
2022-09-12T06:04:10.528Z,15.40
2022-09-12T06:06:41.682Z,15.40
2022-09-12T06:09:08.976Z,15.60
2022-09-12T06:11:40.891Z,15.70
2022-09-12T06:14:09.956Z,15.90
2022-09-12T06:16:37.677Z,16.10
2022-09-12T06:19:16.708Z,16.20
2022-09-12T06:21:44.148Z,16.40
2022-09-12T06:24:11.150Z,16.60
2022-09-12T06:26:37.895Z,16.80
2022-09-12T06:29:04.891Z,17.00
2022-09-12T06:31:34.257Z,17.20
2022-09-12T06:34:05.581Z,17.50
2022-09-12T06:36:34.885Z,17.70
2022-09-12T06:39:04.686Z,18.00
2022-09-12T06:41:32.243Z,18.20
2022-09-12T06:43:59.906Z,18.40
2022-09-12T06:46:27.352Z,18.50
2022-09-12T06:48:56.086Z,18.70
2022-09-12T06:51:23.465Z,18.90
2022-09-12T06:53:50.300Z,19.20
2022-09-12T06:56:19.559Z,19.60
2022-09-12T06:58:48.044Z,20.10
2022-09-12T07:01:19.913Z,20.60
2022-09-12T07:03:55.113Z,21.30
2022-09-12T07:06:31.834Z,22.10
2022-09-12T07:08:59.786Z,22.80
2022-09-12T07:11:28.801Z,23.50
2022-09-12T07:13:56.673Z,24.10
2022-09-12T07:16:24.021Z,24.80
2022-09-12T07:18:52.941Z,25.40
2022-09-12T07:21:20.212Z,26.00
2022-09-12T07:23:47.429Z,26.50
2022-09-12T07:26:15.868Z,27.00
2022-09-12T07:28:43.130Z,27.40
2022-09-12T07:31:18.332Z,27.80
2022-09-12T07:33:45.258Z,28.20
2022-09-12T07:36:14.251Z,28.40
2022-09-12T07:38:41.709Z,28.40
2022-09-12T07:41:18.803Z,28.50
2022-09-12T07:43:45.983Z,28.60
2022-09-12T07:46:12.814Z,28.70
2022-09-12T07:48:40.337Z,28.60
2022-09-12T07:51:09.476Z,28.60
2022-09-12T07:53:41.151Z,28.60
2022-09-12T07:56:10.292Z,28.30
2022-09-12T07:58:38.592Z,28.20
2022-09-12T08:01:09.507Z,28.10
2022-09-12T08:03:36.665Z,27.90
2022-09-12T08:06:20.304Z,27.70
2022-09-12T08:08:48.314Z,27.40
2022-09-12T08:11:18.027Z,27.10
2022-09-12T08:13:45.566Z,27.00
2022-09-12T08:16:14.587Z,26.80
2022-09-12T08:18:41.673Z,26.70
2022-09-12T08:21:12.968Z,26.70
2022-09-12T08:23:39.643Z,26.60
2022-09-12T08:26:06.807Z,26.60
2022-09-12T08:28:35.477Z,26.60
2022-09-12T08:31:03.728Z,26.50
2022-09-12T08:33:33.421Z,26.40
2022-09-12T08:36:04.988Z,26.20
2022-09-12T08:38:32.519Z,26.00
2022-09-12T08:41:11.661Z,25.90
2022-09-12T08:44:32.124Z,25.90
2022-09-12T08:47:10.701Z,26.00
2022-09-12T08:50:03.581Z,25.90
2022-09-12T08:52:52.778Z,25.90
2022-09-12T08:55:37.727Z,26.10
2022-09-12T08:58:24.572Z,26.30
2022-09-12T09:01:23.846Z,26.40
2022-09-12T09:03:56.601Z,26.50
2022-09-12T09:07:00.201Z,26.70
2022-09-12T09:09:44.834Z,26.80
2022-09-12T09:12:29.455Z,26.80
2022-09-12T09:15:26.438Z,26.80
2022-09-12T09:18:02.009Z,26.80
2022-09-12T09:20:39.248Z,27.00
2022-09-12T09:23:28.045Z,27.20
2022-09-12T09:25:54.620Z,27.40
2022-09-12T09:28:30.286Z,27.40
2022-09-12T09:30:57.864Z,27.40
2022-09-12T09:33:33.699Z,27.40
2022-09-12T09:36:29.399Z,27.40
2022-09-12T09:39:03.558Z,27.40
2022-09-12T09:41:58.538Z,27.30
2022-09-12T09:44:31.342Z,27.20
2022-09-12T09:47:00.079Z,27.20
2022-09-12T09:49:33.484Z,27.20
2022-09-12T09:52:01.617Z,27.20
2022-09-12T09:54:40.342Z,27.10
2022-09-12T09:57:36.095Z,27.10
2022-09-12T10:00:27.063Z,27.10
2022-09-12T10:03:14.924Z,27.20
2022-09-12T10:05:47.588Z,27.20
2022-09-12T10:08:35.679Z,27.10
2022-09-12T10:11:19.952Z,27.30
2022-09-12T10:13:54.494Z,27.60
2022-09-12T10:16:25.430Z,27.80
2022-09-12T10:18:53.453Z,28.00
2022-09-12T10:21:33.706Z,28.20
2022-09-12T10:24:21.024Z,28.40
2022-09-12T10:26:56.830Z,28.40
2022-09-12T10:29:28.965Z,28.40
2022-09-12T10:31:59.646Z,28.30
2022-09-12T10:34:28.723Z,28.30
2022-09-12T10:37:01.603Z,28.40
2022-09-12T10:39:28.700Z,28.40
2022-09-12T10:41:55.509Z,28.60
2022-09-12T10:44:28.936Z,28.70
2022-09-12T10:46:56.517Z,28.70
2022-09-12T10:49:31.754Z,28.60
2022-09-12T10:52:17.541Z,28.50
2022-09-12T10:54:44.814Z,28.50
2022-09-12T10:57:21.170Z,28.40
2022-09-12T11:00:20.232Z,28.40
2022-09-12T11:03:05.594Z,28.40
2022-09-12T11:05:37.764Z,28.50
2022-09-12T11:08:10.200Z,28.80
2022-09-12T11:10:45.626Z,29.10
2022-09-12T11:13:44.928Z,29.40
2022-09-12T11:16:29.589Z,29.80
2022-09-12T11:19:11.731Z,30.30
2022-09-12T11:22:10.674Z,31.00
2022-09-12T11:24:46.221Z,31.50
2022-09-12T11:27:25.953Z,31.80
2022-09-12T11:30:04.123Z,32.10
2022-09-12T11:33:07.685Z,32.30
2022-09-12T11:35:38.585Z,32.70
2022-09-12T11:38:23.044Z,32.90
2022-09-12T11:41:04.899Z,33.00
2022-09-12T11:43:37.299Z,33.00
2022-09-12T11:46:23.094Z,32.70
2022-09-12T11:49:28.869Z,32.40
2022-09-12T11:52:16.596Z,31.90
2022-09-12T11:55:17.056Z,31.40
2022-09-12T11:57:49.346Z,31.00
2022-09-12T12:00:23.813Z,31.00
2022-09-12T12:03:09.081Z,31.30
2022-09-12T12:05:54.392Z,31.60
2022-09-12T12:08:23.329Z,31.80
2022-09-12T12:10:56.237Z,31.60
2022-09-12T12:13:28.112Z,31.50
2022-09-12T12:16:07.124Z,31.40
2022-09-12T12:18:37.709Z,31.50
2022-09-12T12:21:32.988Z,31.50
2022-09-12T12:24:08.661Z,31.70
2022-09-12T12:26:43.782Z,31.70
2022-09-12T12:29:11.796Z,31.70
2022-09-12T12:32:07.956Z,31.40
2022-09-12T12:34:36.696Z,31.30
2022-09-12T12:37:22.114Z,31.00
2022-09-12T12:40:08.149Z,30.70
2022-09-12T12:42:37.810Z,30.40
2022-09-12T12:45:27.242Z,30.40
2022-09-12T12:47:56.865Z,30.20
2022-09-12T12:50:26.482Z,30.00
2022-09-12T12:53:17.574Z,29.90
2022-09-12T12:55:44.173Z,29.50
2022-09-12T12:58:35.041Z,29.40
2022-09-12T13:01:15.835Z,29.30
2022-09-12T13:03:47.159Z,29.20
2022-09-12T13:06:36.970Z,29.00
2022-09-12T13:09:08.719Z,28.80
2022-09-12T13:11:40.197Z,28.80
2022-09-12T13:14:47.085Z,28.80
2022-09-12T13:17:19.379Z,29.00
2022-09-12T13:19:46.841Z,29.00
2022-09-12T13:22:14.526Z,29.10
2022-09-12T13:24:49.122Z,29.20
2022-09-12T13:27:26.604Z,29.40
2022-09-12T13:30:13.608Z,29.50
2022-09-12T13:32:42.465Z,29.50
2022-09-12T13:35:27.928Z,29.30
2022-09-12T13:38:05.393Z,29.20
2022-09-12T13:40:47.157Z,29.00
2022-09-12T13:43:20.983Z,28.70
2022-09-12T13:45:47.986Z,28.60
2022-09-12T13:48:19.330Z,28.60
2022-09-12T13:51:06.022Z,28.70
2022-09-12T13:54:00.564Z,28.70
2022-09-12T13:56:27.304Z,28.60
2022-09-12T13:59:00.232Z,28.40
2022-09-12T14:01:47.215Z,28.20
2022-09-12T14:04:37.468Z,28.10
2022-09-12T14:07:13.578Z,28.20
2022-09-12T14:09:43.679Z,28.10
2022-09-12T14:12:22.076Z,28.10
2022-09-12T14:14:50.919Z,28.30
2022-09-12T14:17:24.047Z,28.50
2022-09-12T14:19:52.782Z,28.60
2022-09-12T14:22:19.601Z,28.80
2022-09-12T14:24:51.596Z,28.70
2022-09-12T14:27:31.732Z,28.50
2022-09-12T14:30:23.765Z,28.30
2022-09-12T14:33:11.746Z,28.30
2022-09-12T14:35:43.395Z,28.30
2022-09-12T14:38:19.900Z,28.30
2022-09-12T14:40:49.875Z,28.40
2022-09-12T14:43:25.364Z,28.40
2022-09-12T14:46:04.655Z,28.30
2022-09-12T14:48:36.352Z,28.30
2022-09-12T14:51:04.784Z,28.30
2022-09-12T14:53:32.110Z,28.30
2022-09-12T14:56:10.412Z,28.20
2022-09-12T14:58:38.662Z,28.30
2022-09-12T15:01:08.575Z,28.30
2022-09-12T15:03:43.891Z,28.20
2022-09-12T15:06:22.724Z,28.00
2022-09-12T15:08:49.818Z,27.90
2022-09-12T15:11:16.528Z,27.80
2022-09-12T15:13:43.273Z,27.80
2022-09-12T15:16:11.700Z,27.70
2022-09-12T15:18:38.609Z,27.70
2022-09-12T15:21:07.713Z,27.60
2022-09-12T15:23:35.812Z,27.50
2022-09-12T15:26:03.280Z,27.40
2022-09-12T15:28:30.953Z,27.30
2022-09-12T15:31:00.012Z,27.30
2022-09-12T15:33:26.865Z,27.30
2022-09-12T15:35:53.725Z,27.30
2022-09-12T15:38:25.768Z,27.20
2022-09-12T15:40:54.053Z,27.10
2022-09-12T15:43:22.462Z,27.00
2022-09-12T15:45:51.644Z,27.00
2022-09-12T15:48:19.132Z,26.90
2022-09-12T15:50:45.942Z,26.90
2022-09-12T15:53:16.158Z,26.80
2022-09-12T15:55:43.667Z,26.80
2022-09-12T15:58:10.767Z,26.80
2022-09-12T16:00:37.487Z,26.80
2022-09-12T16:03:04.848Z,26.90
2022-09-12T16:05:32.121Z,27.00
2022-09-12T16:07:58.892Z,27.00
2022-09-12T16:10:29.551Z,27.00
2022-09-12T16:12:56.471Z,27.00
2022-09-12T16:15:24.917Z,27.00
2022-09-12T16:17:52.239Z,26.90
2022-09-12T16:20:19.689Z,26.90
2022-09-12T16:22:46.721Z,26.80
2022-09-12T16:25:13.642Z,26.80
2022-09-12T16:27:40.669Z,26.70
2022-09-12T16:30:08.492Z,26.70
2022-09-12T16:32:35.747Z,26.70
2022-09-12T16:35:02.828Z,26.60
2022-09-12T16:37:29.845Z,26.60
2022-09-12T16:39:56.698Z,26.50
2022-09-12T16:42:23.494Z,26.50
2022-09-12T16:44:50.216Z,26.50
2022-09-12T16:47:16.988Z,26.40
2022-09-12T16:49:43.844Z,26.40
2022-09-12T16:52:10.917Z,26.40
2022-09-12T16:54:37.627Z,26.30
2022-09-12T16:57:06.404Z,26.20
2022-09-12T16:59:33.102Z,26.10
2022-09-12T17:02:00.302Z,26.10
2022-09-12T17:04:27.299Z,26.10
2022-09-12T17:06:54.066Z,25.90
2022-09-12T17:09:21.772Z,25.80
2022-09-12T17:11:49.675Z,25.80
2022-09-12T17:14:16.417Z,25.70
2022-09-12T17:16:50.803Z,25.70
2022-09-12T17:19:21.466Z,25.60
2022-09-12T17:21:49.979Z,25.50
2022-09-12T17:24:18.007Z,25.40
2022-09-12T17:26:45.146Z,25.30
2022-09-12T17:29:13.951Z,25.30
2022-09-12T17:31:41.723Z,25.10
2022-09-12T17:34:08.583Z,25.10
2022-09-12T17:36:35.624Z,25.00
2022-09-12T17:39:04.145Z,24.90
2022-09-12T17:41:33.878Z,24.80
2022-09-12T17:44:02.682Z,24.70
2022-09-12T17:46:35.225Z,24.60
2022-09-12T17:49:04.704Z,24.50
2022-09-12T17:51:31.854Z,24.40
2022-09-12T17:54:08.306Z,24.30
2022-09-12T17:56:37.002Z,24.20
2022-09-12T17:59:05.140Z,24.10
2022-09-12T18:01:51.474Z,24.00
2022-09-12T18:04:19.985Z,23.90
2022-09-12T18:06:50.100Z,23.80
2022-09-12T18:09:20.018Z,23.70
2022-09-12T18:11:48.089Z,23.60
2022-09-12T18:14:17.164Z,23.50
2022-09-12T18:16:45.206Z,23.40
2022-09-12T18:19:12.202Z,23.30
2022-09-12T18:21:39.108Z,23.20
2022-09-12T18:24:06.378Z,23.10
2022-09-12T18:26:33.938Z,23.10
2022-09-12T18:29:00.733Z,22.90
2022-09-12T18:31:30.219Z,22.90
2022-09-12T18:33:59.733Z,22.80
2022-09-12T18:36:27.192Z,22.70
2022-09-12T18:38:54.166Z,22.70
2022-09-12T18:41:25.181Z,22.60
2022-09-12T18:43:59.836Z,22.50
2022-09-12T18:46:27.996Z,22.40
2022-09-12T18:48:57.705Z,22.30
2022-09-12T18:51:31.145Z,22.20
2022-09-12T18:54:00.651Z,22.10
2022-09-12T18:56:34.412Z,21.90
2022-09-12T18:59:02.852Z,21.70
2022-09-12T19:01:35.241Z,21.50
2022-09-12T19:04:04.955Z,21.40
2022-09-12T19:06:41.069Z,21.40
2022-09-12T19:09:09.389Z,21.30
2022-09-12T19:11:38.811Z,21.30
2022-09-12T19:14:06.715Z,21.30
2022-09-12T19:16:34.658Z,21.20
2022-09-12T19:19:02.602Z,21.10
2022-09-12T19:21:30.985Z,20.80
2022-09-12T19:24:00.087Z,20.70
2022-09-12T19:26:26.867Z,20.50
2022-09-12T19:28:54.610Z,20.40
2022-09-12T19:31:23.224Z,20.30
2022-09-12T19:33:52.118Z,20.30
2022-09-12T19:36:44.298Z,20.30
2022-09-12T19:39:08.235Z,20.30
2022-09-12T19:41:35.774Z,20.30
2022-09-12T19:44:03.682Z,20.20
2022-09-12T19:46:30.477Z,20.10
2022-09-12T19:48:57.260Z,19.90
2022-09-12T19:51:24.206Z,19.80
2022-09-12T19:53:51.435Z,19.70
2022-09-12T19:56:18.708Z,19.60
2022-09-12T19:58:49.085Z,19.50
2022-09-12T20:01:19.028Z,19.50
2022-09-12T20:03:46.609Z,19.30
2022-09-12T20:06:15.749Z,19.30
2022-09-12T20:08:43.992Z,19.30
2022-09-12T20:11:13.788Z,19.30
2022-09-12T20:13:41.304Z,19.30
2022-09-12T20:16:20.374Z,19.30
2022-09-12T20:18:52.142Z,19.40
2022-09-12T20:21:20.892Z,19.40
2022-09-12T20:23:47.793Z,19.50
2022-09-12T20:26:14.516Z,19.50
2022-09-12T20:28:42.152Z,19.50
2022-09-12T20:31:15.838Z,19.50
2022-09-12T20:33:43.344Z,19.50
2022-09-12T20:36:15.607Z,19.40
2022-09-12T20:38:46.332Z,19.40
2022-09-12T20:41:13.101Z,19.40
2022-09-12T20:43:40.113Z,19.30
2022-09-12T20:46:09.768Z,19.30
2022-09-12T20:48:37.571Z,19.20
2022-09-12T20:51:04.483Z,19.20
2022-09-12T20:53:34.841Z,19.10
2022-09-12T20:56:03.040Z,19.10
2022-09-12T20:58:29.899Z,19.10
2022-09-12T21:00:57.036Z,19.00
2022-09-12T21:03:25.469Z,18.90
2022-09-12T21:05:52.545Z,18.80
2022-09-12T21:08:19.422Z,18.80
2022-09-12T21:10:46.166Z,18.80
2022-09-12T21:13:13.774Z,18.80
2022-09-12T21:15:41.390Z,18.70
2022-09-12T21:18:08.533Z,18.70
2022-09-12T21:20:35.362Z,18.70
2022-09-12T21:23:02.236Z,18.70
2022-09-12T21:25:29.926Z,18.60
2022-09-12T21:27:56.725Z,18.50
2022-09-12T21:30:23.520Z,18.50
2022-09-12T21:32:50.199Z,18.40
2022-09-12T21:35:17.145Z,18.40
2022-09-12T21:37:43.789Z,18.40
2022-09-12T21:40:10.865Z,18.40
2022-09-12T21:42:37.726Z,18.40
2022-09-12T21:45:05.078Z,18.40
2022-09-12T21:47:31.847Z,18.40
2022-09-12T21:49:58.712Z,18.40
2022-09-12T21:52:25.614Z,18.40
2022-09-12T21:54:52.438Z,18.40
2022-09-12T21:57:19.113Z,18.30
2022-09-12T21:59:45.862Z,18.30
2022-09-12T22:02:13.772Z,18.30
2022-09-12T22:04:40.471Z,18.30
2022-09-12T22:07:07.576Z,18.30
2022-09-12T22:09:34.811Z,18.30
2022-09-12T22:12:02.411Z,18.30
2022-09-12T22:14:29.642Z,18.20
2022-09-12T22:16:56.895Z,18.20
2022-09-12T22:19:23.638Z,18.20
2022-09-12T22:22:09.238Z,18.20
2022-09-12T22:24:36.437Z,18.20
2022-09-12T22:27:05.821Z,18.20
2022-09-12T22:29:32.970Z,18.20
2022-09-12T22:32:00.766Z,18.20
2022-09-12T22:34:28.757Z,18.30
2022-09-12T22:36:56.324Z,18.10
2022-09-12T22:39:23.955Z,18.10
2022-09-12T22:41:50.952Z,18.10
2022-09-12T22:44:17.793Z,18.10
2022-09-12T22:46:45.100Z,18.00
2022-09-12T22:49:12.771Z,18.00
2022-09-12T22:51:39.700Z,18.10
2022-09-12T22:54:07.150Z,18.10
2022-09-12T22:56:33.915Z,18.10
2022-09-12T22:59:01.230Z,18.10
2022-09-12T23:01:28.153Z,18.10
2022-09-12T23:03:54.861Z,18.10
2022-09-12T23:06:21.595Z,18.10
2022-09-12T23:08:48.324Z,18.10
2022-09-12T23:11:17.278Z,18.10
2022-09-12T23:13:45.972Z,18.00
2022-09-12T23:16:24.338Z,18.00
2022-09-12T23:18:51.484Z,18.00
2022-09-12T23:21:20.409Z,18.00
2022-09-12T23:23:47.453Z,17.90
2022-09-12T23:26:18.504Z,17.90
2022-09-12T23:28:56.840Z,18.00
2022-09-12T23:31:26.303Z,18.00
2022-09-12T23:33:54.032Z,17.90
2022-09-12T23:36:21.218Z,17.90
2022-09-12T23:38:48.443Z,17.90
2022-09-12T23:41:16.662Z,17.90
2022-09-12T23:43:45.344Z,17.90
2022-09-12T23:46:14.250Z,17.80
2022-09-12T23:48:41.979Z,17.80
2022-09-12T23:51:09.910Z,17.80
2022-09-12T23:53:36.829Z,17.70
2022-09-12T23:56:04.106Z,17.70
2022-09-12T23:58:31.104Z,17.60
